createdAt,value
2019-03-17T00:00:13.580Z,11.85
2019-03-17T00:02:42.497Z,11.50
2019-03-17T00:05:11.618Z,11.43
2019-03-17T00:07:40.538Z,11.28
2019-03-17T00:10:09.626Z,11.43
2019-03-17T00:12:38.658Z,11.97
2019-03-17T00:15:08.303Z,12.90
2019-03-17T00:17:37.284Z,12.25
2019-03-17T00:20:07.657Z,13.18
2019-03-17T00:22:36.658Z,13.90
2019-03-17T00:25:09.743Z,14.10
2019-03-17T00:27:38.379Z,13.30
2019-03-17T00:30:09.859Z,12.05
2019-03-17T00:32:38.900Z,14.10
2019-03-17T00:35:09.174Z,15.68
2019-03-17T00:37:38.458Z,14.13
2019-03-17T00:40:10.143Z,13.25
2019-03-17T00:42:39.151Z,12.68
2019-03-17T00:45:11.555Z,12.68
2019-03-17T00:47:40.866Z,15.95
2019-03-17T00:50:11.739Z,17.57
2019-03-17T00:52:40.619Z,17.92
2019-03-17T00:55:09.662Z,15.48
2019-03-17T00:57:38.618Z,15.40
2019-03-17T01:00:10.985Z,15.03
2019-03-17T01:02:40.021Z,13.38
2019-03-17T01:05:09.099Z,14.28
2019-03-17T01:07:38.229Z,13.90
2019-03-17T01:10:09.105Z,14.18
2019-03-17T01:12:38.401Z,13.53
2019-03-17T01:15:08.499Z,13.18
2019-03-17T01:17:37.467Z,13.00
2019-03-17T01:20:09.345Z,12.88
2019-03-17T01:22:38.299Z,12.18
2019-03-17T01:25:09.345Z,13.25
2019-03-17T01:27:38.426Z,13.80
2019-03-17T01:30:12.939Z,13.22
2019-03-17T01:32:41.982Z,12.70
2019-03-17T01:35:11.220Z,14.13
2019-03-17T01:37:40.259Z,13.05
2019-03-17T01:40:10.581Z,12.35
2019-03-17T01:42:39.659Z,12.20
2019-03-17T01:45:09.906Z,11.53
2019-03-17T01:47:39.055Z,12.10
2019-03-17T01:50:09.220Z,11.90
2019-03-17T01:52:38.221Z,13.20
2019-03-17T01:55:08.027Z,12.58
2019-03-17T01:57:37.100Z,12.65
2019-03-17T02:00:09.379Z,12.80
2019-03-17T02:02:38.340Z,13.60
2019-03-17T02:05:07.899Z,12.93
2019-03-17T02:07:36.939Z,13.18
2019-03-17T02:10:07.627Z,14.33
2019-03-17T02:12:36.580Z,12.78
2019-03-17T02:15:08.105Z,14.80
2019-03-17T02:17:37.179Z,14.03
2019-03-17T02:20:09.265Z,14.18
2019-03-17T02:22:38.219Z,14.58
2019-03-17T02:25:07.379Z,14.05
2019-03-17T02:27:36.489Z,14.70
2019-03-17T02:30:08.141Z,13.45
2019-03-17T02:32:37.234Z,13.50
2019-03-17T02:35:06.661Z,12.53
2019-03-17T02:37:35.704Z,14.18
2019-03-17T02:40:06.581Z,14.28
2019-03-17T02:42:35.782Z,13.25
2019-03-17T02:45:06.876Z,13.72
2019-03-17T02:47:35.939Z,13.78
2019-03-17T02:50:06.346Z,14.40
2019-03-17T02:52:35.470Z,13.10
2019-03-17T02:55:05.900Z,13.35
2019-03-17T02:57:34.940Z,12.15
2019-03-17T03:00:04.871Z,11.83
2019-03-17T03:02:33.825Z,12.47
2019-03-17T03:05:02.899Z,11.57
2019-03-17T03:07:31.988Z,12.45
2019-03-17T03:10:00.983Z,12.53
2019-03-17T03:12:29.944Z,12.20
2019-03-17T03:14:59.019Z,13.10
2019-03-17T03:17:28.036Z,13.05
2019-03-17T03:19:56.948Z,13.08
2019-03-17T03:22:25.900Z,12.15
2019-03-17T03:24:54.820Z,13.22
2019-03-17T03:27:23.939Z,12.60
2019-03-17T03:29:52.904Z,12.85
2019-03-17T03:32:21.982Z,12.95
2019-03-17T03:34:51.060Z,14.75
2019-03-17T03:37:20.138Z,13.32
2019-03-17T03:39:49.181Z,13.93
2019-03-17T03:42:18.186Z,13.85
2019-03-17T03:44:47.147Z,13.72
2019-03-17T03:47:16.112Z,14.50
2019-03-17T03:49:45.180Z,14.10
2019-03-17T03:52:14.189Z,13.98
2019-03-17T03:54:43.223Z,15.15
2019-03-17T03:57:12.186Z,15.15
2019-03-17T03:59:41.142Z,16.15
2019-03-17T04:02:10.349Z,14.68
2019-03-17T04:04:39.500Z,14.23
2019-03-17T04:07:08.587Z,14.60
2019-03-17T04:09:37.630Z,14.40
2019-03-17T04:12:06.705Z,14.68
2019-03-17T04:14:35.785Z,15.25
2019-03-17T04:17:04.821Z,15.53
2019-03-17T04:19:33.773Z,15.18
2019-03-17T04:22:02.827Z,16.07
2019-03-17T04:24:31.820Z,16.32
2019-03-17T04:27:00.979Z,18.17
2019-03-17T04:29:30.021Z,17.20
2019-03-17T04:31:59.100Z,17.40
2019-03-17T04:34:28.142Z,16.70
2019-03-17T04:36:57.101Z,17.98
2019-03-17T04:39:26.027Z,18.12
2019-03-17T04:41:55.215Z,18.45
2019-03-17T04:44:24.182Z,20.37
2019-03-17T04:46:53.336Z,17.70
2019-03-17T04:49:22.419Z,17.25
2019-03-17T04:51:51.579Z,18.45
2019-03-17T04:54:20.421Z,19.67
2019-03-17T04:56:49.339Z,18.62
2019-03-17T04:59:18.459Z,17.48
2019-03-17T05:01:47.379Z,18.10
2019-03-17T05:04:16.461Z,18.27
2019-03-17T05:06:52.641Z,17.65
2019-03-17T05:09:16.244Z,18.32
2019-03-17T05:11:45.265Z,18.82
2019-03-17T05:14:14.219Z,18.80
2019-03-17T05:16:43.104Z,17.92
2019-03-17T05:19:12.059Z,26.12
2019-03-17T05:21:41.219Z,24.75
2019-03-17T05:24:10.144Z,22.77
2019-03-17T05:26:39.355Z,21.68
2019-03-17T05:29:08.419Z,20.37
2019-03-17T05:31:37.611Z,23.22
2019-03-17T05:34:06.585Z,24.75
2019-03-17T05:36:35.579Z,31.12
2019-03-17T05:39:06.376Z,20.12
2019-03-17T05:41:35.227Z,21.55
2019-03-17T05:44:04.219Z,21.37
2019-03-17T05:46:33.050Z,22.67
2019-03-17T05:49:01.979Z,21.37
2019-03-17T05:51:30.902Z,19.82
2019-03-17T05:53:59.819Z,19.30
2019-03-17T05:56:28.779Z,18.75
2019-03-17T05:58:57.866Z,20.52
2019-03-17T06:01:26.900Z,18.92
2019-03-17T06:03:56.383Z,18.77
2019-03-17T06:06:25.370Z,18.12
2019-03-17T06:08:54.408Z,17.45
2019-03-17T06:11:23.320Z,18.17
2019-03-17T06:13:52.377Z,17.85
2019-03-17T06:16:21.459Z,17.10
2019-03-17T06:18:50.579Z,16.75
2019-03-17T06:21:19.621Z,17.60
2019-03-17T06:23:48.739Z,16.90
2019-03-17T06:26:17.659Z,15.72
2019-03-17T06:28:46.579Z,15.98
2019-03-17T06:31:15.458Z,15.90
2019-03-17T06:33:44.659Z,14.85
2019-03-17T06:36:13.499Z,14.25
2019-03-17T06:38:42.539Z,13.83
2019-03-17T06:41:11.467Z,12.93
2019-03-17T06:43:40.499Z,13.20
2019-03-17T06:46:09.586Z,12.78
2019-03-17T06:48:38.579Z,14.03
2019-03-17T06:51:07.539Z,12.78
2019-03-17T06:53:36.579Z,12.68
2019-03-17T06:56:05.659Z,12.10
2019-03-17T06:58:34.658Z,13.55
2019-03-17T07:01:03.906Z,11.97
2019-03-17T07:03:32.986Z,11.88
2019-03-17T07:06:02.349Z,9.93
2019-03-17T07:08:31.380Z,11.48
2019-03-17T07:11:00.419Z,11.83
2019-03-17T07:13:29.379Z,10.35
2019-03-17T07:15:58.419Z,11.43
2019-03-17T07:18:27.379Z,11.43
2019-03-17T07:20:56.263Z,10.72
2019-03-17T07:23:25.299Z,10.40
2019-03-17T07:25:54.299Z,10.58
2019-03-17T07:28:23.262Z,10.25
2019-03-17T07:30:52.301Z,9.58
2019-03-17T07:33:21.460Z,10.08
2019-03-17T07:35:50.499Z,9.75
2019-03-17T07:38:19.339Z,9.78
2019-03-17T07:40:48.355Z,9.93
2019-03-17T07:43:17.579Z,10.35
2019-03-17T07:45:46.660Z,9.33
2019-03-17T07:48:15.779Z,8.90
2019-03-17T07:50:44.820Z,7.53
2019-03-17T07:53:13.819Z,6.90
2019-03-17T07:55:42.900Z,6.97
2019-03-17T07:58:11.981Z,6.70
2019-03-17T08:00:41.020Z,6.62
2019-03-17T08:03:09.897Z,6.37
2019-03-17T08:05:38.900Z,6.10
2019-03-17T08:08:09.650Z,6.70
2019-03-17T08:10:38.857Z,6.17
2019-03-17T08:13:07.817Z,5.90
2019-03-17T08:15:36.858Z,6.00
2019-03-17T08:18:05.931Z,6.28
2019-03-17T08:20:34.893Z,7.05
2019-03-17T08:23:03.942Z,5.35
2019-03-17T08:25:32.939Z,5.53
2019-03-17T08:28:01.822Z,5.95
2019-03-17T08:30:31.019Z,4.83
2019-03-17T08:33:00.025Z,4.17
2019-03-17T08:35:28.980Z,4.58
2019-03-17T08:37:58.018Z,4.67
2019-03-17T08:40:27.031Z,4.40
2019-03-17T08:42:55.978Z,5.03
2019-03-17T08:45:24.899Z,4.78
2019-03-17T08:47:58.359Z,4.62
2019-03-17T08:50:24.418Z,4.37
2019-03-17T08:52:53.463Z,4.33
2019-03-17T08:55:22.617Z,4.80
2019-03-17T08:57:51.659Z,4.37
2019-03-17T09:00:21.539Z,3.55
2019-03-17T09:02:50.623Z,3.40
2019-03-17T09:05:19.660Z,3.27
2019-03-17T09:07:48.659Z,3.15
2019-03-17T09:10:17.898Z,3.10
2019-03-17T09:12:46.863Z,2.85
2019-03-17T09:15:16.025Z,3.00
2019-03-17T09:17:45.139Z,3.20
2019-03-17T09:20:14.988Z,2.55
2019-03-17T09:22:44.021Z,3.50
2019-03-17T09:25:12.940Z,2.70
2019-03-17T09:27:42.069Z,2.98
2019-03-17T09:30:18.130Z,2.37
2019-03-17T09:32:47.182Z,2.33
2019-03-17T09:35:16.263Z,1.67
2019-03-17T09:37:45.267Z,1.87
2019-03-17T09:40:15.257Z,1.82
2019-03-17T09:42:44.354Z,1.70
2019-03-17T09:45:14.381Z,1.90
2019-03-17T09:47:43.577Z,1.80
2019-03-17T09:50:16.861Z,1.50
2019-03-17T09:52:45.943Z,1.80
2019-03-17T09:55:14.823Z,1.75
2019-03-17T09:57:43.819Z,1.45
2019-03-17T10:00:18.459Z,1.40
2019-03-17T10:02:47.569Z,1.60
2019-03-17T10:05:16.770Z,1.85
2019-03-17T10:07:45.694Z,1.27
2019-03-17T10:10:16.763Z,1.47
2019-03-17T10:12:45.961Z,2.00
2019-03-17T10:15:16.389Z,1.95
2019-03-17T10:17:45.458Z,1.55
2019-03-17T10:20:16.442Z,2.00
2019-03-17T10:22:45.568Z,1.95
2019-03-17T10:25:14.614Z,1.67
2019-03-17T10:27:43.600Z,1.72
2019-03-17T10:30:19.601Z,1.60
2019-03-17T10:32:48.651Z,1.62
2019-03-17T10:35:17.601Z,1.70
2019-03-17T10:37:46.680Z,2.00
2019-03-17T10:40:16.853Z,2.08
2019-03-17T10:42:45.931Z,1.80
2019-03-17T10:45:15.673Z,2.15
2019-03-17T10:47:44.755Z,2.02
2019-03-17T10:50:18.122Z,2.30
2019-03-17T10:52:47.122Z,2.00
2019-03-17T10:55:16.482Z,2.10
2019-03-17T10:57:45.648Z,2.50
2019-03-17T11:00:17.575Z,2.55
2019-03-17T11:02:46.682Z,2.90
2019-03-17T11:05:15.760Z,2.80
2019-03-17T11:07:44.967Z,3.20
2019-03-17T11:10:15.250Z,3.00
2019-03-17T11:12:44.486Z,3.35
2019-03-17T11:15:17.721Z,2.92
2019-03-17T11:17:46.809Z,3.00
2019-03-17T11:20:16.122Z,2.75
2019-03-17T11:22:45.202Z,2.70
2019-03-17T11:25:16.226Z,3.15
2019-03-17T11:27:45.402Z,2.92
2019-03-17T11:30:19.441Z,2.83
2019-03-17T11:32:48.731Z,2.40
2019-03-17T11:35:18.049Z,2.65
2019-03-17T11:37:47.321Z,2.67
2019-03-17T11:40:21.416Z,2.80
2019-03-17T11:42:50.688Z,2.55
2019-03-17T11:45:19.956Z,2.90
2019-03-17T11:47:49.275Z,2.77
2019-03-17T11:50:19.634Z,2.45
2019-03-17T11:52:48.882Z,2.60
2019-03-17T11:55:18.217Z,2.58
2019-03-17T11:57:47.640Z,2.70
2019-03-17T12:00:20.830Z,2.40
2019-03-17T12:02:49.836Z,2.50
2019-03-17T12:05:19.090Z,2.22
2019-03-17T12:07:48.161Z,2.30
2019-03-17T12:10:23.889Z,2.70
2019-03-17T12:12:52.962Z,2.52
2019-03-17T12:15:24.386Z,2.10
2019-03-17T12:17:53.370Z,2.20
2019-03-17T12:20:22.571Z,2.05
2019-03-17T12:22:51.673Z,2.20
2019-03-17T12:25:20.882Z,1.55
2019-03-17T12:27:50.114Z,1.60
2019-03-17T12:30:27.160Z,1.35
2019-03-17T12:32:56.921Z,1.55
2019-03-17T12:35:25.975Z,1.50
2019-03-17T12:37:55.129Z,1.87
2019-03-17T12:40:24.361Z,1.57
2019-03-17T12:42:53.421Z,1.47
2019-03-17T12:45:22.523Z,1.42
2019-03-17T12:47:51.520Z,1.80
2019-03-17T12:50:27.726Z,1.80
2019-03-17T12:52:56.929Z,1.90
2019-03-17T12:55:26.128Z,2.08
2019-03-17T12:57:55.288Z,1.50
2019-03-17T13:00:27.930Z,1.70
2019-03-17T13:02:57.210Z,2.00
2019-03-17T13:05:26.488Z,1.80
2019-03-17T13:07:55.720Z,1.90
2019-03-17T13:10:24.931Z,1.72
2019-03-17T13:12:54.122Z,1.70
2019-03-17T13:15:24.291Z,1.85
2019-03-17T13:17:53.491Z,1.85
2019-03-17T13:20:22.841Z,1.92
2019-03-17T13:22:52.012Z,1.90
2019-03-17T13:25:21.162Z,1.77
2019-03-17T13:27:50.407Z,1.80
2019-03-17T13:30:20.050Z,1.92
2019-03-17T13:32:49.211Z,2.22
2019-03-17T13:35:18.409Z,2.00
2019-03-17T13:37:47.560Z,1.72
2019-03-17T13:40:28.777Z,1.98
2019-03-17T13:42:49.689Z,2.00
2019-03-17T13:45:18.932Z,1.70
2019-03-17T13:47:48.169Z,2.08
2019-03-17T13:50:21.939Z,2.00
2019-03-17T13:52:51.172Z,2.10
2019-03-17T13:55:20.488Z,2.10
2019-03-17T13:57:52.520Z,1.92
2019-03-17T14:00:21.770Z,2.00
2019-03-17T14:02:51.050Z,2.20
2019-03-17T14:05:20.280Z,2.17
2019-03-17T14:07:49.440Z,1.82
2019-03-17T14:10:19.410Z,2.42
2019-03-17T14:12:48.627Z,2.08
2019-03-17T14:15:17.921Z,2.25
2019-03-17T14:17:47.084Z,2.55
2019-03-17T14:20:21.027Z,2.77
2019-03-17T14:22:50.546Z,2.47
2019-03-17T14:25:31.591Z,2.55
2019-03-17T14:28:00.854Z,2.62
2019-03-17T14:30:30.100Z,2.22
2019-03-17T14:32:59.408Z,2.50
2019-03-17T14:35:28.610Z,3.08
2019-03-17T14:37:58.000Z,2.70
2019-03-17T14:40:27.255Z,2.70
2019-03-17T14:42:56.489Z,2.80
2019-03-17T14:45:25.600Z,2.55
2019-03-17T14:47:54.930Z,2.75
2019-03-17T14:50:25.001Z,2.55
2019-03-17T14:52:54.262Z,2.50
2019-03-17T14:55:23.561Z,2.52
2019-03-17T14:57:52.730Z,2.75
2019-03-17T15:00:23.309Z,2.98
2019-03-17T15:02:52.567Z,3.22
2019-03-17T15:05:21.770Z,3.20
2019-03-17T15:07:50.970Z,2.85
2019-03-17T15:10:21.254Z,3.20
2019-03-17T15:12:50.533Z,2.90
2019-03-17T15:15:20.665Z,2.90
2019-03-17T15:17:50.210Z,3.47
2019-03-17T15:20:22.168Z,3.15
2019-03-17T15:22:51.409Z,3.17
2019-03-17T15:25:20.684Z,3.70
2019-03-17T15:27:49.889Z,2.98
2019-03-17T15:30:31.014Z,3.00
2019-03-17T15:33:00.281Z,2.80
2019-03-17T15:35:29.442Z,3.15
2019-03-17T15:37:58.647Z,3.15
2019-03-17T15:40:27.881Z,2.80
2019-03-17T15:42:57.169Z,2.67
2019-03-17T15:45:26.775Z,2.67
2019-03-17T15:47:56.052Z,2.95
2019-03-17T15:50:26.125Z,2.30
2019-03-17T15:52:55.546Z,3.02
2019-03-17T15:55:24.920Z,2.75
2019-03-17T15:57:54.250Z,2.60
2019-03-17T16:00:27.298Z,3.00
2019-03-17T16:02:57.642Z,2.37
2019-03-17T16:05:26.850Z,3.05
2019-03-17T16:07:56.040Z,3.35
2019-03-17T16:10:32.763Z,3.10
2019-03-17T16:13:02.012Z,3.22
2019-03-17T16:15:31.283Z,3.00
2019-03-17T16:18:00.527Z,3.08
2019-03-17T16:20:29.691Z,2.67
2019-03-17T16:22:58.962Z,2.90
2019-03-17T16:25:32.770Z,3.00
2019-03-17T16:28:02.096Z,2.83
2019-03-17T16:30:32.328Z,2.70
2019-03-17T16:33:01.650Z,2.92
2019-03-17T16:35:30.813Z,2.92
2019-03-17T16:38:00.184Z,2.87
2019-03-17T16:40:36.370Z,2.80
2019-03-17T16:43:07.091Z,3.20
2019-03-17T16:45:37.901Z,3.20
2019-03-17T16:48:07.130Z,2.98
2019-03-17T16:50:36.374Z,2.62
2019-03-17T16:53:05.607Z,3.08
2019-03-17T16:55:34.890Z,3.10
2019-03-17T16:58:04.204Z,3.12
2019-03-17T17:00:33.523Z,2.95
2019-03-17T17:03:02.722Z,2.80
2019-03-17T17:05:34.956Z,2.90
2019-03-17T17:08:02.884Z,3.20
2019-03-17T17:10:32.689Z,3.60
2019-03-17T17:13:01.925Z,3.37
2019-03-17T17:15:32.882Z,3.83
2019-03-17T17:18:02.172Z,3.80
2019-03-17T17:20:35.930Z,3.95
2019-03-17T17:23:05.309Z,3.72
2019-03-17T17:25:34.640Z,3.40
2019-03-17T17:28:03.881Z,3.80
2019-03-17T17:30:33.122Z,3.52
2019-03-17T17:33:02.370Z,3.67
2019-03-17T17:35:31.644Z,4.00
2019-03-17T17:38:00.874Z,3.40
2019-03-17T17:40:30.109Z,3.40
2019-03-17T17:42:59.323Z,3.60
2019-03-17T17:45:28.579Z,3.60
2019-03-17T17:47:57.777Z,3.47
2019-03-17T17:50:29.997Z,3.77
2019-03-17T17:52:59.312Z,3.40
2019-03-17T17:55:28.578Z,3.60
2019-03-17T17:57:57.857Z,3.60
2019-03-17T18:00:31.096Z,3.75
2019-03-17T18:03:01.699Z,4.17
2019-03-17T18:05:30.937Z,4.20
2019-03-17T18:08:00.193Z,5.67
2019-03-17T18:10:29.348Z,6.25
2019-03-17T18:12:58.577Z,6.22
2019-03-17T18:15:34.899Z,5.62
2019-03-17T18:18:05.538Z,7.45
2019-03-17T18:20:34.707Z,6.80
2019-03-17T18:23:03.899Z,6.22
2019-03-17T18:25:33.100Z,7.05
2019-03-17T18:28:02.378Z,6.83
2019-03-17T18:30:31.577Z,6.55
2019-03-17T18:33:00.825Z,7.10
2019-03-17T18:35:30.180Z,6.33
2019-03-17T18:38:00.822Z,6.55
2019-03-17T18:40:30.180Z,7.08
2019-03-17T18:42:59.579Z,7.83
2019-03-17T18:45:30.417Z,7.15
2019-03-17T18:47:59.697Z,7.83
2019-03-17T18:50:29.063Z,7.10
2019-03-17T18:52:58.419Z,8.18
2019-03-17T18:55:27.738Z,7.70
2019-03-17T18:57:57.059Z,7.12
2019-03-17T19:00:28.539Z,7.10
2019-03-17T19:02:57.910Z,6.85
2019-03-17T19:05:27.163Z,8.13
2019-03-17T19:07:56.440Z,7.60
2019-03-17T19:10:25.699Z,7.45
2019-03-17T19:12:54.999Z,8.40
2019-03-17T19:15:24.540Z,8.03
2019-03-17T19:17:53.780Z,7.35
2019-03-17T19:20:23.759Z,8.48
2019-03-17T19:22:52.901Z,8.58
2019-03-17T19:25:23.360Z,8.60
2019-03-17T19:27:52.561Z,8.30
2019-03-17T19:30:23.604Z,9.58
2019-03-17T19:32:52.758Z,9.28
2019-03-17T19:35:23.421Z,7.90
2019-03-17T19:37:52.720Z,11.43
2019-03-17T19:40:25.638Z,10.60
2019-03-17T19:42:59.549Z,11.33
2019-03-17T19:45:27.343Z,11.50
2019-03-17T19:47:56.481Z,12.18
2019-03-17T19:50:25.824Z,11.90
2019-03-17T19:52:55.110Z,12.88
2019-03-17T19:55:24.309Z,13.55
2019-03-17T19:57:54.999Z,11.93
2019-03-17T20:00:24.299Z,5.60
2019-03-17T20:02:53.522Z,4.03
2019-03-17T20:05:22.740Z,4.55
2019-03-17T20:07:52.021Z,4.28
2019-03-17T20:10:29.620Z,3.92
2019-03-17T20:13:10.718Z,3.65
2019-03-17T20:15:29.703Z,3.10
2019-03-17T20:17:59.020Z,3.05
2019-03-17T20:20:28.860Z,4.12
2019-03-17T20:22:59.379Z,3.33
2019-03-17T20:25:28.440Z,3.12
2019-03-17T20:27:57.605Z,2.55
2019-03-17T20:30:26.778Z,3.50
2019-03-17T20:32:55.923Z,2.90
2019-03-17T20:35:25.080Z,2.70
2019-03-17T20:37:54.239Z,2.52
2019-03-17T20:40:23.259Z,2.47
2019-03-17T20:42:52.344Z,2.40
2019-03-17T20:45:21.474Z,2.10
2019-03-17T20:47:50.667Z,2.08
2019-03-17T20:50:21.726Z,2.05
2019-03-17T20:52:50.957Z,4.03
2019-03-17T20:55:20.120Z,2.45
2019-03-17T20:57:49.319Z,2.02
2019-03-17T21:00:19.319Z,2.10
2019-03-17T21:02:48.493Z,2.55
2019-03-17T21:05:18.111Z,1.67
2019-03-17T21:07:47.343Z,2.15
2019-03-17T21:10:17.145Z,1.80
2019-03-17T21:12:46.241Z,1.75
2019-03-17T21:15:17.364Z,1.62
2019-03-17T21:17:46.518Z,2.15
2019-03-17T21:20:17.160Z,2.00
2019-03-17T21:22:46.218Z,1.80
2019-03-17T21:25:15.326Z,1.60
2019-03-17T21:27:44.561Z,1.90
2019-03-17T21:30:20.441Z,2.40
2019-03-17T21:32:49.747Z,1.87
2019-03-17T21:35:18.902Z,2.02
2019-03-17T21:37:47.879Z,2.10
2019-03-17T21:40:16.938Z,2.25
2019-03-17T21:42:46.122Z,2.08
2019-03-17T21:45:15.402Z,2.30
2019-03-17T21:47:44.558Z,2.40
2019-03-17T21:50:20.441Z,2.20
2019-03-17T21:52:49.627Z,2.37
2019-03-17T21:55:18.798Z,2.52
2019-03-17T21:57:47.778Z,2.30
2019-03-17T22:00:18.639Z,3.20
2019-03-17T22:02:47.558Z,2.52
2019-03-17T22:05:17.057Z,3.47
2019-03-17T22:07:49.981Z,3.95
2019-03-17T22:10:20.606Z,4.55
2019-03-17T22:12:49.618Z,5.67
2019-03-17T22:15:19.084Z,5.90
2019-03-17T22:17:48.078Z,3.00
2019-03-17T22:20:17.678Z,4.67
2019-03-17T22:22:46.580Z,6.20
2019-03-17T22:25:16.238Z,8.60
2019-03-17T22:27:45.205Z,5.90
2019-03-17T22:30:23.161Z,3.85
2019-03-17T22:32:52.158Z,6.15
2019-03-17T22:35:21.016Z,6.12
2019-03-17T22:37:49.921Z,6.33
2019-03-17T22:40:19.639Z,8.63
2019-03-17T22:42:48.479Z,8.50
2019-03-17T22:45:17.663Z,10.82
2019-03-17T22:47:46.726Z,6.42
2019-03-17T22:50:16.738Z,8.00
2019-03-17T22:52:45.799Z,5.05
2019-03-17T22:55:15.000Z,4.10
2019-03-17T22:57:43.859Z,4.55
2019-03-17T23:00:33.819Z,4.92
2019-03-17T23:03:02.862Z,3.00
2019-03-17T23:05:31.804Z,11.85
2019-03-17T23:08:00.742Z,1.70
2019-03-17T23:10:29.658Z,5.83
2019-03-17T23:12:58.878Z,2.17
2019-03-17T23:15:27.800Z,7.72
2019-03-17T23:17:56.858Z,3.12
2019-03-17T23:20:25.797Z,4.22
2019-03-17T23:22:54.658Z,3.20
2019-03-17T23:25:23.539Z,3.20
2019-03-17T23:27:52.399Z,6.10
2019-03-17T23:30:22.260Z,6.92
2019-03-17T23:32:51.118Z,6.67
2019-03-17T23:35:20.000Z,5.50
2019-03-17T23:37:48.977Z,3.52
2019-03-17T23:40:18.558Z,3.90
2019-03-17T23:42:47.418Z,4.22
2019-03-17T23:45:16.519Z,4.78
2019-03-17T23:47:45.399Z,7.42
2019-03-17T23:50:16.087Z,6.78
2019-03-17T23:52:45.000Z,12.58
2019-03-17T23:55:15.158Z,12.43
2019-03-17T23:57:44.063Z,5.20
